Time;durP1;ratioP1;P1;durP2;ratioP2;P2;SDS_P1;SDS_P2;PMS_P1;PMS_P2;Temp;Humidity;BMP_temperature;BMP_pressure;BME280_temperature;BME280_humidity;BME280_pressure;Samples;Min_cycle;Max_cycle;Signal;HPM_P1;HPM_P2
2022/02/03 00:02:05;;;;;;;23.10;14.25;;;;;;;7.11;57.32;100878.02;1700234;83;21098;-74
2022/02/03 00:04:19;;;;;;;22.37;14.90;;;;;;;7.12;57.31;100877.16;1712754;83;21590;-74
2022/02/03 00:07:01;;;;;;;24.25;15.20;;;;;;;7.11;57.34;100872.84;1667910;85;21023;-75
2022/02/03 00:25:28;;;;;;;18.98;14.20;;;;;;;6.91;57.18;100887.62;1661580;85;21094;-74
2022/02/03 00:49:28;;;;;;;18.92;12.95;;;;;;;7.01;57.75;100878.94;1666922;85;21089;-74
2022/02/03 00:52:00;;;;;;;16.23;12.40;;;;;;;7.02;57.74;100866.88;1690257;84;21149;-74
2022/02/03 00:54:30;;;;;;;16.30;11.90;;;;;;;7.03;57.71;100866.86;1694847;83;21557;-75
2022/02/03 00:57:04;;;;;;;17.67;11.65;;;;;;;7.05;57.72;100877.19;1760809;80;21006;-75
2022/02/03 00:59:40;;;;;;;16.82;11.53;;;;;;;7.06;57.68;100872.45;1756265;80;21518;-74
2022/02/03 01:02:12;;;;;;;15.48;11.10;;;;;;;7.06;57.67;100868.15;1767114;80;21097;-75
2022/02/03 01:04:41;;;;;;;15.45;11.22;;;;;;;7.07;57.63;100866.39;1749951;80;21532;-75
2022/02/03 01:07:19;;;;;;;13.55;10.82;;;;;;;7.08;57.63;100870.72;1767244;80;21030;-75
2022/02/03 01:09:59;;;;;;;14.80;11.50;;;;;;;7.09;57.63;100878.92;1691273;83;21047;-74
2022/02/03 01:12:29;;;;;;;16.20;11.57;;;;;;;7.08;57.63;100887.53;1689958;83;21129;-75
2022/02/03 01:17:47;;;;;;;18.40;11.25;;;;;;;7.10;57.61;100890.97;1687579;83;21618;-75
2022/02/03 01:44:41;;;;;;;16.07;11.18;;;;;;;7.07;57.41;100903.91;1592774;89;21114;-74
2022/02/03 01:49:40;;;;;;;17.15;12.35;;;;;;;7.06;57.46;100903.50;1597661;89;21126;-74
2022/02/03 01:51:57;;;;;;;17.47;12.70;;;;;;;7.04;57.50;100900.93;1593576;89;21046;-74
2022/02/03 01:54:28;;;;;;;16.95;13.00;;;;;;;7.05;57.56;100896.59;1556486;91;21085;-75
2022/02/03 01:57:09;;;;;;;20.40;13.98;;;;;;;7.04;57.48;100891.01;1557316;91;21161;-74
2022/02/03 01:59:37;;;;;;;19.17;13.58;;;;;;;7.04;57.42;100891.88;1560081;91;21538;-74
2022/02/03 02:02:06;;;;;;;19.15;13.28;;;;;;;7.05;57.39;100892.71;1557085;91;21098;-75
2022/02/03 02:04:46;;;;;;;17.27;13.13;;;;;;;7.05;57.39;100892.71;1561883;91;21042;-75
2022/02/03 02:07:22;;;;;;;18.30;13.18;;;;;;;7.03;57.37;100896.61;1602886;88;21118;-75
2022/02/03 02:13:08;;;;;;;17.00;13.18;;;;;;;7.03;57.39;100899.62;1556313;91;21136;-75
2022/02/03 02:37:55;;;;;;;17.98;11.28;;;;;;;6.97;57.29;100903.11;1489013;95;21112;-73
2022/02/03 02:43:49;;;;;;;14.93;11.12;;;;;;;6.97;57.46;100907.41;1485935;95;21180;-75
2022/02/03 02:46:35;;;;;;;15.58;11.50;;;;;;;6.96;57.51;100910.89;1482289;95;21104;-74
2022/02/03 02:49:51;;;;;;;16.48;12.20;;;;;;;6.96;57.54;100913.47;1438597;98;21158;-73
2022/02/03 03:03:32;;;;;;;17.55;12.03;;;;;;;6.94;57.68;100920.38;1403155;98;21145;-75
2022/02/03 03:35:55;;;;;;;17.00;12.60;;;;;;;6.84;57.57;100916.95;1517159;93;21117;-74
2022/02/03 03:38:25;;;;;;;16.85;12.88;;;;;;;6.83;57.68;100922.14;1510071;93;21110;-75
2022/02/03 03:40:54;;;;;;;;;;;;;;;6.83;57.65;100919.55;1482123;96;21089;-74
2022/02/03 03:43:45;;;;;;;19.15;13.00;;;;;;;6.82;57.70;100915.27;1482710;96;20184;-75
2022/02/03 03:46:27;;;;;;;19.12;13.60;;;;;;;6.80;57.71;100917.83;1483111;96;21160;-74
2022/02/03 03:49:32;;;;;;;16.97;12.60;;;;;;;6.79;57.72;100919.14;1446339;98;21136;-76
2022/02/03 03:52:08;;;;;;;18.90;13.03;;;;;;;6.78;57.73;100932.49;1467067;95;21634;-74
2022/02/03 03:54:40;;;;;;;19.07;14.23;;;;;;;6.77;57.66;100940.27;1493169;95;21154;-75
2022/02/03 03:57:21;;;;;;;18.07;14.35;;;;;;;6.77;57.64;100943.72;1488589;95;21101;-75
2022/02/03 05:03:24;;;;;;;24.55;18.23;;;;;;;6.00;57.03;101035.55;1416625;100;21153;-73
2022/02/03 05:06:25;;;;;;;25.10;17.45;;;;;;;6.00;57.03;101030.37;1423481;100;21123;-73
2022/02/03 05:25:42;;;;;;;23.65;14.45;;;;;;;5.93;57.01;101047.17;1472227;96;21156;-73
2022/02/03 05:35:13;;;;;;;20.90;14.45;;;;;;;5.83;57.17;101050.56;1468249;96;21613;-72
2022/02/03 05:43:43;;;;;;;22.40;16.10;;;;;;;5.70;57.53;101075.48;1427193;100;21566;-72
2022/02/03 05:46:06;;;;;;;23.05;16.55;;;;;;;5.66;57.63;101084.08;1467867;96;21195;-74
2022/02/03 05:48:46;;;;;;;24.57;16.60;;;;;;;5.66;57.75;101090.53;1461167;96;21618;-72
2022/02/03 06:04:57;;;;;;;21.12;16.27;;;;;;;5.50;57.96;101121.02;1461181;97;21087;-72
2022/02/03 06:07:28;;;;;;;22.30;16.57;;;;;;;5.53;57.97;101121.88;1455144;97;21548;-72
2022/02/03 06:15:02;;;;;;;26.25;16.40;;;;;;;5.64;57.50;101134.84;1531752;92;21229;-73
2022/02/03 06:17:36;;;;;;;21.85;15.68;;;;;;;5.65;57.30;101139.13;1547696;89;21555;-72
2022/02/03 06:22:49;;;;;;;24.40;16.90;;;;;;;5.62;57.10;101145.17;1591516;88;21065;-72
2022/02/03 06:27:47;;;;;;;24.00;17.20;;;;;;;5.61;57.02;101138.27;1575984;89;21651;-73
2022/02/03 06:30:18;;;;;;;22.93;16.45;;;;;;;5.62;57.12;101140.42;1560397;89;21091;-72
2022/02/03 06:32:45;;;;;;;24.02;17.25;;;;;;;5.65;57.13;101139.13;1573980;89;21211;-72
2022/02/03 06:35:14;;;;;;;25.20;16.15;;;;;;;5.69;56.91;101140.87;1576177;88;21144;-73
2022/02/03 06:37:40;;;;;;;24.20;17.12;;;;;;;5.69;56.90;101143.45;1588926;89;21026;-72
2022/02/03 06:40:09;;;;;;;22.05;16.50;;;;;;;5.66;56.98;101151.20;1568109;88;21541;-72
2022/02/03 06:42:37;;;;;;;24.27;17.37;;;;;;;5.66;57.09;101148.62;1724696;80;21065;-72
2022/02/03 06:45:21;;;;;;;24.72;17.77;;;;;;;5.63;57.17;101158.92;1763493;80;21069;-72
2022/02/03 06:47:56;;;;;;;22.48;16.12;;;;;;;5.61;57.21;101160.62;1749983;80;21026;-72
2022/02/03 06:50:23;;;;;;;22.60;17.65;;;;;;;5.59;57.33;101163.63;1746378;81;21045;-72
2022/02/03 06:58:06;;;;;;;27.13;20.00;;;;;;;5.46;57.64;101181.22;1669545;85;21141;-72
2022/02/03 07:00:37;;;;;;;24.63;19.10;;;;;;;5.43;57.59;101185.05;1673168;84;21034;-71
2022/02/03 07:03:02;;;;;;;27.32;19.50;;;;;;;5.38;57.65;101190.64;1681545;85;21159;-71
2022/02/03 07:05:28;;;;;;;28.55;20.00;;;;;;;5.33;57.75;101187.15;1668695;85;21102;-73
2022/02/03 07:07:55;;;;;;;27.02;20.55;;;;;;;5.27;57.96;101195.72;1670128;85;21030;-71
2022/02/03 07:10:22;;;;;;;27.00;19.27;;;;;;;5.23;58.04;101204.72;1678134;85;21116;-71
2022/02/03 07:12:49;;;;;;;26.42;20.40;;;;;;;5.25;58.21;101215.91;1663758;85;21739;-72
2022/02/03 07:15:16;;;;;;;29.50;20.70;;;;;;;5.25;58.14;101217.20;1667134;85;21603;-71
2022/02/03 07:17:42;;;;;;;27.07;19.73;;;;;;;5.24;58.17;101206.42;1673689;85;21077;-72
2022/02/03 07:20:12;;;;;;;27.15;20.10;;;;;;;5.25;58.24;101212.04;1665153;85;21141;-71
2022/02/03 07:22:41;;;;;;;28.32;21.10;;;;;;;5.25;58.15;101212.04;1671550;85;21086;-72
2022/02/03 07:25:08;;;;;;;27.42;19.92;;;;;;;5.25;58.14;101214.62;1659519;85;21046;-72
2022/02/03 07:27:34;;;;;;;28.57;20.32;;;;;;;5.30;58.19;101212.91;1676230;85;21054;-73
2022/02/03 07:30:00;;;;;;;32.00;20.75;;;;;;;5.33;58.11;101211.66;1658550;85;21039;-77
2022/02/03 07:32:27;;;;;;;27.55;20.17;;;;;;;5.36;58.08;101216.41;1653178;84;21060;-73
2022/02/03 07:34:55;;;;;;;30.77;20.90;;;;;;;5.38;57.80;101216.44;1701863;80;21058;-71
2022/02/03 07:37:26;;;;;;;31.27;20.45;;;;;;;5.40;57.89;101223.77;1751369;80;21105;-73
2022/02/03 07:39:53;;;;;;;30.08;20.20;;;;;;;5.44;57.82;101216.48;1763480;80;21544;-74
2022/02/03 07:42:19;;;;;;;28.90;21.80;;;;;;;5.48;57.80;101223.38;1735800;80;21553;-73
2022/02/03 07:44:46;;;;;;;29.82;20.55;;;;;;;5.52;57.67;101225.12;1751049;80;20983;-72
2022/02/03 07:47:12;;;;;;;28.55;18.98;;;;;;;5.54;57.56;101229.42;1759254;80;20999;-73
2022/02/03 07:49:38;;;;;;;28.02;20.12;;;;;;;5.58;57.57;101236.36;1743995;80;21018;-72
2022/02/03 07:52:05;;;;;;;29.60;19.60;;;;;;;5.59;57.34;101239.78;1751692;80;21557;-72
2022/02/03 07:54:32;;;;;;;25.35;18.75;;;;;;;5.60;57.27;101254.43;1751472;80;21022;-72
2022/02/03 07:57:00;;;;;;;27.00;19.05;;;;;;;5.60;57.29;101254.43;1744364;80;21025;-71
2022/02/03 07:59:27;;;;;;;28.40;20.23;;;;;;;5.62;57.29;101260.47;1740319;80;21065;-71
2022/02/03 08:01:53;;;;;;;29.60;19.70;;;;;;;5.65;57.22;101263.05;1753711;80;21037;-71
2022/02/03 08:04:25;;;;;;;26.75;18.75;;;;;;;5.65;57.16;101260.47;1753386;80;21069;-71
2022/02/03 08:06:49;;;;;;;27.62;18.98;;;;;;;5.66;57.16;101268.67;1691567;84;21075;-73
2022/02/03 08:11:47;;;;;;;24.67;18.27;;;;;;;5.67;57.22;101265.22;1725666;82;21573;-71
2022/02/03 08:14:17;;;;;;;25.82;18.37;;;;;;;5.71;57.34;101268.25;1741908;81;21083;-72
2022/02/03 08:19:19;;;;;;;26.57;18.35;;;;;;;5.83;57.14;101276.52;1695053;83;21065;-70
2022/02/03 08:21:42;;;;;;;26.75;18.40;;;;;;;5.91;57.09;101277.03;1694149;82;21092;-72
2022/02/03 08:24:29;;;;;;;24.10;17.80;;;;;;;5.95;56.76;101283.94;1690726;83;21073;-71
2022/02/03 08:34:32;;;;;;;23.92;17.10;;;;;;;6.08;56.49;101293.46;1615559;88;21172;-70
2022/02/03 08:36:46;;;;;;;21.97;15.15;;;;;;;6.12;56.45;101291.33;1610447;88;21188;-71
2022/02/03 08:39:18;;;;;;;20.70;15.48;;;;;;;6.16;56.46;101299.53;1603820;88;21096;-71
2022/02/03 08:41:41;;;;;;;24.90;16.82;;;;;;;6.24;56.33;101303.46;1618586;88;21031;-69
2022/02/03 08:44:07;;;;;;;24.35;18.15;;;;;;;6.25;56.17;101307.34;1608147;87;21048;-70
2022/02/03 08:46:35;;;;;;;21.33;15.72;;;;;;;6.28;56.04;101304.78;1617188;87;21117;-70
2022/02/03 08:49:05;;;;;;;20.50;16.45;;;;;;;6.29;55.95;101303.91;1548109;89;21108;-76
2022/02/03 08:51:31;;;;;;;19.60;15.45;;;;;;;6.34;55.99;101309.97;1593682;89;21110;-71
2022/02/03 08:54:06;;;;;;;18.45;14.47;;;;;;;6.37;55.93;101293.59;1585810;88;21037;-70
2022/02/03 08:56:35;;;;;;;20.15;15.23;;;;;;;6.41;55.90;101309.13;1585941;89;21188;-70
2022/02/03 09:39:22;;;;;;;18.95;13.78;;;;;;;6.78;55.25;101310.55;1595413;87;21104;-69
2022/02/03 10:03:20;;;;;;;14.00;11.10;;;;;;;6.93;54.59;101304.09;1558827;90;21150;-71
2022/02/03 10:06:12;;;;;;;14.73;12.10;;;;;;;6.95;54.56;101310.13;1548575;91;21949;-71
2022/02/03 10:08:52;;;;;;;12.88;10.90;;;;;;;6.99;54.45;101307.98;1569532;91;21095;-72
2022/02/03 10:11:26;;;;;;;11.68;9.90;;;;;;;7.04;54.31;101315.34;1582330;87;21125;-70
2022/02/03 10:13:56;;;;;;;14.35;10.25;;;;;;;7.10;54.08;101308.88;1614591;88;21136;-70
2022/02/03 10:16:33;;;;;;;12.40;11.10;;;;;;;7.14;53.96;101304.13;1619870;88;21066;-72
2022/02/03 10:19:17;;;;;;;16.62;11.28;;;;;;;7.19;53.80;101308.90;1623617;87;21054;-71
2022/02/03 10:21:44;;;;;;;12.40;10.48;;;;;;;7.23;53.59;101308.03;1600643;87;21110;-70
2022/02/03 10:24:15;;;;;;;13.43;10.38;;;;;;;7.29;53.60;101309.33;1609514;88;21046;-69
2022/02/03 10:26:45;;;;;;;14.00;10.05;;;;;;;7.35;53.39;101314.51;1602704;87;21122;-69
2022/02/03 10:29:16;;;;;;;10.45;9.33;;;;;;;7.40;52.97;101311.47;1633232;86;21074;-70
2022/02/03 10:31:44;;;;;;;11.63;9.58;;;;;;;7.40;52.76;101305.00;1587593;89;21660;-70
2022/02/03 10:34:13;;;;;;;12.37;9.68;;;;;;;7.40;52.60;101305.00;1579061;89;21115;-71
2022/02/03 10:44:58;;;;;;;12.40;9.90;;;;;;;7.52;51.92;101311.49;1605258;87;21153;-69
2022/02/03 10:55:28;;;;;;;13.03;10.10;;;;;;;7.43;52.48;101317.95;1495705;93;21090;-70
2022/02/03 11:00:25;;;;;;;12.15;9.60;;;;;;;7.48;52.84;101309.73;1536800;92;21288;-70
2022/02/03 11:03:07;;;;;;;13.30;9.00;;;;;;;7.54;52.69;101308.47;1555725;92;21055;-71
2022/02/03 11:05:40;;;;;;;11.08;9.13;;;;;;;7.59;52.59;101297.66;1552748;91;21593;-70
2022/02/03 11:07:58;;;;;;;10.80;8.68;;;;;;;7.60;52.29;101301.99;1545844;92;21121;-69
2022/02/03 11:12:59;;;;;;;11.73;8.65;;;;;;;7.60;52.24;101296.81;1585922;89;21112;-70
2022/02/03 11:15:27;;;;;;;11.33;9.60;;;;;;;7.53;52.45;101304.14;1582995;88;21184;-69
2022/02/03 11:17:55;;;;;;;9.80;8.73;;;;;;;7.50;52.75;101304.13;1588294;89;21098;-71
2022/02/03 11:20:24;;;;;;;12.65;9.88;;;;;;;7.53;52.82;101309.32;1587558;89;21113;-69
2022/02/03 11:25:57;;;;;;;11.85;9.60;;;;;;;7.63;52.87;101316.22;1575450;89;21162;-70
2022/02/03 11:49:38;;;;;;;10.43;8.60;;;;;;;8.01;51.30;101311.85;1593555;88;21109;-70
2022/02/03 12:16:40;;;;;;;8.33;7.50;;;;;;;7.81;51.26;101334.32;1475971;96;21113;-69
2022/02/03 12:26:54;;;;;;;7.60;6.00;;;;;;;7.92;50.44;101352.45;1499473;95;21134;-73
2022/02/03 12:29:19;;;;;;;7.58;5.92;;;;;;;7.95;50.21;101359.80;1494419;95;21141;-70
2022/02/03 12:42:46;;;;;;;7.62;6.00;;;;;;;7.98;49.25;101368.85;1421787;99;21183;-70
2022/02/03 12:45:17;;;;;;;9.40;6.70;;;;;;;7.97;49.16;101383.12;1431590;99;21198;-69
2022/02/03 12:47:48;;;;;;;9.33;6.40;;;;;;;7.91;49.41;101380.08;1429006;99;21163;-70
2022/02/03 12:50:27;;;;;;;5.83;4.78;;;;;;;7.90;49.36;101380.96;1424306;99;21638;-68
2022/02/03 12:52:55;;;;;;;6.05;5.45;;;;;;;7.85;49.39;101382.67;1426485;99;21237;-69
2022/02/03 12:55:37;;;;;;;6.20;5.58;;;;;;;7.82;49.40;101390.89;1416840;100;21140;-70
2022/02/03 12:58:12;;;;;;;8.73;5.90;;;;;;;7.79;49.29;101394.80;1446936;96;21131;-70
2022/02/03 13:00:45;;;;;;;35.13;19.90;;;;;;;7.75;49.33;101395.20;1447665;97;21584;-68
2022/02/03 13:03:12;;;;;;;18.50;11.28;;;;;;;7.75;49.46;101396.50;1437474;99;21625;-70
2022/02/03 13:05:41;;;;;;;9.63;7.17;;;;;;;7.82;49.49;101398.67;1400281;101;21274;-69
2022/02/03 13:08:08;;;;;;;8.63;6.60;;;;;;;7.90;49.13;101393.92;1399403;101;21391;-70
2022/02/03 13:10:37;;;;;;;7.55;6.22;;;;;;;8.01;48.85;101399.97;1461071;94;21204;-70
2022/02/03 13:13:21;;;;;;;7.85;6.80;;;;;;;8.13;48.65;101399.95;1497872;93;21073;-70
2022/02/03 13:15:44;;;;;;;8.93;7.00;;;;;;;8.28;48.37;101394.33;1500074;94;21110;-70
2022/02/03 13:20:46;;;;;;;9.25;7.35;;;;;;;8.47;47.12;101407.69;1472028;95;21157;-70
2022/02/03 13:23:14;;;;;;;9.00;7.40;;;;;;;8.53;46.85;101399.88;1476530;96;21110;-69
2022/02/03 13:28:10;;;;;;;8.53;6.87;;;;;;;8.58;47.04;101408.50;1427808;99;21167;-71
2022/02/03 13:30:48;;;;;;;11.50;8.03;;;;;;;8.56;47.25;101421.91;1433576;98;21121;-69
2022/02/03 13:33:15;;;;;;;9.80;7.55;;;;;;;8.51;47.25;101424.97;1426275;98;21081;-69
2022/02/03 13:35:48;;;;;;;9.20;6.22;;;;;;;8.41;47.35;101420.67;1427057;99;21136;-71
2022/02/03 13:38:25;;;;;;;7.75;6.92;;;;;;;8.33;47.59;101435.35;1428111;97;21196;-69
2022/02/03 13:40:47;;;;;;;9.75;6.50;;;;;;;8.22;47.86;101436.20;1462967;97;21104;-70
2022/02/03 13:43:17;;;;;;;9.13;7.58;;;;;;;8.09;48.23;101443.58;1461385;96;21117;-69
2022/02/03 13:45:45;;;;;;;9.38;7.75;;;;;;;8.06;48.32;101443.99;1470464;96;21171;-69
2022/02/03 13:48:19;;;;;;;7.95;6.75;;;;;;;7.99;48.51;101444.88;1464432;97;21126;-69
2022/02/03 13:50:55;;;;;;;8.40;6.90;;;;;;;7.90;48.81;101453.52;1451702;97;21096;-70
2022/02/03 13:53:30;;;;;;;8.10;6.65;;;;;;;7.83;48.99;101458.25;1466480;96;21167;-70
2022/02/03 14:21:16;;;;;;;5.75;5.15;;;;;;;7.43;50.92;101495.73;1488696;95;21579;-68
2022/02/03 14:29:16;;;;;;;5.05;3.87;;;;;;;7.35;50.93;101500.91;1508437;94;21284;-68
2022/02/03 14:31:42;;;;;;;4.47;4.08;;;;;;;7.35;51.04;101506.08;1534489;91;21149;-67
2022/02/03 14:34:15;;;;;;;4.12;3.80;;;;;;;7.38;51.22;101515.14;1552469;92;21077;-68
2022/02/03 14:36:39;;;;;;;5.05;4.50;;;;;;;7.41;51.13;101516.45;1519137;93;21059;-70
2022/02/03 14:39:17;;;;;;;5.95;4.90;;;;;;;7.39;51.09;101520.34;1522926;93;21120;-68
2022/02/03 14:41:45;;;;;;;6.20;4.85;;;;;;;7.34;51.23;101527.22;1564975;89;21172;-68
2022/02/03 14:44:08;;;;;;;5.78;4.83;;;;;;;7.25;51.28;101528.46;1572372;87;21176;-67
2022/02/03 14:46:35;;;;;;;5.55;4.47;;;;;;;7.22;51.14;101535.36;1602009;88;21564;-69
2022/02/03 14:49:02;;;;;;;5.55;4.47;;;;;;;7.16;51.16;101532.75;1560683;90;21171;-68
2022/02/03 14:51:42;;;;;;;6.55;4.85;;;;;;;7.15;51.25;101538.80;1595673;89;21617;-68
2022/02/03 14:59:13;;;;;;;11.55;7.08;;;;;;;7.19;51.01;101527.59;1622749;87;21157;-68
2022/02/03 15:01:40;;;;;;;8.90;6.00;;;;;;;7.23;51.02;101530.63;1621202;87;21116;-67
2022/02/03 15:04:13;;;;;;;9.13;6.80;;;;;;;7.24;51.01;101529.34;1617366;87;21066;-68
2022/02/03 15:06:44;;;;;;;8.30;7.08;;;;;;;7.25;50.99;101532.80;1638749;86;21082;-69
2022/02/03 15:09:32;;;;;;;9.15;7.05;;;;;;;7.22;51.12;101535.36;1626688;86;21026;-68
2022/02/03 15:14:13;;;;;;;11.00;8.23;;;;;;;7.19;51.39;101544.42;1563167;91;21138;-69
2022/02/03 15:16:39;;;;;;;10.75;8.20;;;;;;;7.16;51.51;101543.97;1568658;91;21078;-69
2022/02/03 15:19:07;;;;;;;11.35;7.80;;;;;;;7.17;51.58;101550.02;1572958;91;21589;-68
2022/02/03 15:21:33;;;;;;;10.13;7.92;;;;;;;7.16;51.57;101549.15;1606182;87;21522;-69
2022/02/03 15:24:01;;;;;;;11.85;8.35;;;;;;;7.15;51.64;101549.15;1645281;87;21567;-67
2022/02/03 15:26:28;;;;;;;11.73;8.53;;;;;;;7.14;51.56;101549.57;1647293;87;21071;-68
2022/02/03 15:28:55;;;;;;;10.15;8.50;;;;;;;7.15;51.39;101548.70;1645795;86;21050;-68
2022/02/03 15:31:27;;;;;;;12.07;9.58;;;;;;;7.16;51.31;101553.45;1646346;87;21106;-67
2022/02/03 15:33:57;;;;;;;11.57;9.38;;;;;;;7.14;51.05;101547.41;1645313;87;21047;-69
2022/02/03 15:36:18;;;;;;;13.00;9.13;;;;;;;7.12;50.89;101554.30;1636034;87;21078;-69
2022/02/03 15:38:48;;;;;;;14.25;10.48;;;;;;;7.15;50.84;101551.73;1647862;87;21082;-67
2022/02/03 15:41:21;;;;;;;14.28;9.73;;;;;;;7.19;50.83;101561.25;1638005;86;21083;-68
2022/02/03 15:43:43;;;;;;;13.25;9.43;;;;;;;7.21;50.80;101559.53;1740373;80;21514;-68
2022/02/03 15:46:12;;;;;;;14.83;9.55;;;;;;;7.22;50.73;101558.66;1767092;80;21090;-68
2022/02/03 15:56:49;;;;;;;10.88;8.33;;;;;;;7.24;50.73;101577.64;1686041;83;21052;-68
2022/02/03 16:02:22;;;;;;;9.83;7.40;;;;;;;7.26;50.78;101581.11;1679513;83;21765;-70
2022/02/03 16:17:50;;;;;;;9.33;7.35;;;;;;;7.13;50.61;101602.63;1628517;87;21087;-69
2022/02/03 16:20:24;;;;;;;8.30;7.12;;;;;;;7.07;50.82;101607.73;1622662;87;21586;-68
2022/02/03 16:22:52;;;;;;;8.95;6.87;;;;;;;7.03;51.01;101609.87;1610074;87;21159;-68
2022/02/03 16:52:21;;;;;;;11.40;8.43;;;;;;;6.95;51.29;101638.72;1704790;83;21489;-69
2022/02/03 16:54:32;;;;;;;11.10;8.78;;;;;;;6.88;51.50;101634.37;1719132;81;21035;-69
2022/02/03 16:57:03;;;;;;;11.70;9.25;;;;;;;6.85;51.68;101634.33;1763527;80;21443;-69
2022/02/03 16:59:29;;;;;;;11.08;8.68;;;;;;;6.81;51.68;101646.39;1751196;80;20999;-68
2022/02/03 17:01:55;;;;;;;14.00;9.48;;;;;;;6.81;51.56;101646.80;1762447;80;21474;-69
2022/02/03 17:04:22;;;;;;;12.88;9.65;;;;;;;6.80;51.34;101643.80;1751248;80;20971;-69
2022/02/03 17:06:49;;;;;;;12.95;9.30;;;;;;;6.80;51.35;101651.10;1753272;80;21046;-69
2022/02/03 17:09:15;;;;;;;13.98;9.83;;;;;;;6.82;51.27;101657.16;1754274;80;21057;-69
2022/02/03 17:11:42;;;;;;;14.83;10.18;;;;;;;6.87;51.11;101656.78;1749174;80;21029;-69
2022/02/03 17:14:10;;;;;;;14.95;10.30;;;;;;;6.89;50.88;101657.66;1755234;80;21759;-69
2022/02/03 17:16:37;;;;;;;14.15;9.88;;;;;;;6.90;50.67;101669.75;1744920;80;21015;-69
2022/02/03 17:19:04;;;;;;;14.78;9.78;;;;;;;6.90;50.64;101666.29;1761148;80;21006;-70
2022/02/03 17:21:33;;;;;;;15.75;10.72;;;;;;;6.89;50.52;101668.42;1759352;80;21062;-69
2022/02/03 17:24:00;;;;;;;11.60;9.30;;;;;;;6.87;50.23;101675.31;1751506;81;21079;-69
2022/02/03 17:26:35;;;;;;;14.23;9.63;;;;;;;6.84;50.27;101676.59;1754842;80;21035;-69
2022/02/03 18:05:05;;;;;;;12.33;8.73;;;;;;;6.72;50.14;101676.50;1715154;82;21097;-70
2022/02/03 18:55:38;;;;;;;14.58;10.78;;;;;;;6.48;49.69;101707.73;1636670;87;21108;-69
2022/02/03 19:14:38;;;;;;;10.48;7.65;;;;;;;6.49;48.16;101715.91;1622929;87;21016;-69
2022/02/03 20:03:04;;;;;;;9.40;6.50;;;;;;;6.32;46.68;101725.23;1735638;80;21647;-69
2022/02/03 20:10:14;;;;;;;;;;;;;;;6.31;46.63;101742.87;1585395;89;21100;-68
2022/02/03 20:12:33;;;;;;;8.25;6.17;;;;;;;6.29;46.64;101743.28;1583793;89;20123;-69
2022/02/03 20:15:00;;;;;;;10.18;6.37;;;;;;;6.28;46.76;101747.14;1575833;88;21124;-70
2022/02/03 20:17:28;;;;;;;7.22;5.78;;;;;;;6.27;46.64;101752.73;1585817;89;21529;-68
2022/02/03 20:19:55;;;;;;;8.18;5.95;;;;;;;6.26;46.20;101756.19;1576741;89;22801;-69
2022/02/03 20:22:27;;;;;;;8.40;5.60;;;;;;;6.23;45.82;101756.55;1590628;89;21610;-69
2022/02/03 20:24:51;;;;;;;6.70;4.75;;;;;;;6.21;45.91;101761.70;1587342;89;21100;-69
2022/02/03 20:27:18;;;;;;;7.87;5.25;;;;;;;6.17;46.01;101771.56;1589008;89;21093;-68
2022/02/03 20:29:45;;;;;;;6.80;4.95;;;;;;;6.14;46.12;101770.22;1567405;90;21066;-69
2022/02/03 20:32:11;;;;;;;6.05;4.67;;;;;;;6.13;45.96;101769.80;1576097;89;21105;-69
2022/02/03 20:34:40;;;;;;;6.47;5.17;;;;;;;6.08;45.87;101771.44;1563958;89;21069;-69
2022/02/03 20:37:06;;;;;;;5.92;4.92;;;;;;;6.03;45.80;101761.48;1576780;89;21618;-69
2022/02/03 20:39:32;;;;;;;7.00;4.70;;;;;;;6.00;45.83;101772.19;1580247;89;21181;-69
2022/02/03 20:41:59;;;;;;;5.78;4.47;;;;;;;5.96;45.81;101781.63;1578883;89;21109;-69
2022/02/03 20:44:25;;;;;;;4.83;4.08;;;;;;;5.92;45.52;101768.64;1582838;90;21072;-68
2022/02/03 20:46:52;;;;;;;6.40;4.30;;;;;;;5.89;45.70;101786.28;1604756;85;21029;-69
2022/02/03 20:49:21;;;;;;;5.62;4.83;;;;;;;5.87;45.78;101781.52;1659424;86;21042;-69
2022/02/03 20:51:47;;;;;;;4.60;4.17;;;;;;;5.82;45.52;101772.79;1666313;85;21070;-69
2022/02/03 20:54:13;;;;;;;5.97;4.20;;;;;;;5.75;45.23;101770.95;1660663;84;21105;-68
2022/02/03 20:56:40;;;;;;;5.17;4.37;;;;;;;5.70;45.70;101777.79;1657539;85;20999;-68
2022/02/03 20:59:10;;;;;;;6.95;4.75;;;;;;;5.66;45.82;101789.80;1661237;85;21517;-69
2022/02/03 21:01:37;;;;;;;5.92;4.65;;;;;;;5.62;46.00;101787.14;1666628;85;21009;-69
2022/02/03 21:06:33;;;;;;;5.70;4.87;;;;;;;5.55;44.66;101787.88;1618557;88;21065;-68
2022/02/03 21:08:59;;;;;;;6.40;4.80;;;;;;;5.49;44.49;101783.50;1607858;88;21113;-68
2022/02/03 21:11:26;;;;;;;7.17;4.78;;;;;;;5.43;44.36;101787.70;1613596;88;21039;-69
2022/02/03 21:13:54;;;;;;;7.17;5.50;;;;;;;5.37;44.26;101793.64;1612776;88;21023;-68
2022/02/03 21:16:22;;;;;;;6.80;5.45;;;;;;;5.34;44.25;101785.84;1617373;87;21213;-68
2022/02/03 21:18:49;;;;;;;7.40;4.92;;;;;;;5.31;44.12;101792.67;1612831;88;21101;-69
2022/02/03 21:21:15;;;;;;;7.50;4.67;;;;;;;5.26;44.37;101795.17;1615745;88;21046;-69
2022/02/03 21:23:42;;;;;;;5.62;4.78;;;;;;;5.24;43.78;101790.83;1616524;87;21018;-68
2022/02/03 21:26:16;;;;;;;6.03;4.45;;;;;;;5.22;44.11;101797.67;1615090;88;21149;-68
2022/02/03 21:28:38;;;;;;;6.37;5.05;;;;;;;5.22;44.43;101797.67;1608785;88;21554;-67
2022/02/03 21:31:08;;;;;;;5.58;4.40;;;;;;;5.21;44.23;101802.41;1614298;87;21062;-68
2022/02/03 21:33:45;;;;;;;5.47;4.53;;;;;;;5.22;44.18;101802.83;1620005;87;21097;-68
2022/02/03 21:36:09;;;;;;;4.85;4.03;;;;;;;5.20;43.56;101792.91;1613655;88;21027;-68
2022/02/03 21:38:35;;;;;;;4.95;3.95;;;;;;;5.17;43.36;101804.48;1608441;88;21654;-68
2022/02/03 21:41:02;;;;;;;4.87;3.95;;;;;;;5.14;43.45;101802.72;1614101;88;21380;-68
2022/02/03 21:43:28;;;;;;;4.22;3.70;;;;;;;5.14;42.79;101800.55;1583433;88;21595;-69
2022/02/03 21:45:55;;;;;;;4.45;3.60;;;;;;;5.10;42.85;101789.73;1611709;88;21593;-69
2022/02/03 21:48:22;;;;;;;4.22;3.83;;;;;;;5.08;43.00;101788.42;1619906;88;21011;-68
2022/02/03 21:50:49;;;;;;;5.30;4.08;;;;;;;5.05;43.09;101796.55;1615523;87;21063;-69
2022/02/03 21:53:19;;;;;;;4.12;3.20;;;;;;;5.04;43.11;101802.53;1610400;88;21103;-69
2022/02/03 21:55:45;;;;;;;4.70;3.65;;;;;;;5.01;43.31;101799.91;1616879;88;21098;-69
2022/02/03 21:58:12;;;;;;;3.62;3.17;;;;;;;4.96;42.80;101801.11;1616808;87;21042;-69
2022/02/03 22:00:40;;;;;;;4.37;3.72;;;;;;;4.92;42.92;101800.17;1611442;88;21039;-69
2022/02/03 22:03:08;;;;;;;4.40;3.27;;;;;;;4.89;43.19;101806.58;1649202;82;21027;-69
2022/02/03 22:05:36;;;;;;;5.10;3.50;;;;;;;4.83;42.84;101796.16;1760072;80;21014;-68
2022/02/03 22:08:03;;;;;;;4.20;3.62;;;;;;;4.76;43.19;101797.32;1761321;80;20986;-69
2022/02/03 22:10:29;;;;;;;4.08;3.40;;;;;;;4.70;43.52;101814.81;1757295;80;21001;-69
2022/02/03 22:12:56;;;;;;;4.45;3.50;;;;;;;4.65;43.38;101803.56;1747240;81;20995;-68
2022/02/03 22:15:23;;;;;;;3.30;3.00;;;;;;;4.62;43.82;101803.48;1764208;80;21074;-69
2022/02/03 22:17:51;;;;;;;4.08;3.47;;;;;;;4.60;44.05;101797.44;1757048;80;21001;-69
2022/02/03 22:20:25;;;;;;;4.10;3.33;;;;;;;4.58;43.77;101799.11;1752162;81;21053;-69
2022/02/03 22:26:04;;;;;;;4.87;3.45;;;;;;;4.56;44.16;101789.20;1758467;80;21074;-68
2022/02/03 22:38:59;;;;;;;5.05;3.60;;;;;;;4.60;44.63;101810.33;1732722;81;21518;-69
2022/02/03 22:44:23;;;;;;;4.12;3.33;;;;;;;4.51;44.53;101810.16;1749813;80;21070;-68
2022/02/03 22:47:05;;;;;;;7.95;3.30;;;;;;;4.42;45.25;101809.09;1750365;80;21557;-69
2022/02/03 22:49:20;;;;;;;5.15;3.77;;;;;;;4.37;45.36;101812.86;1740860;81;21493;-68
2022/02/03 22:51:47;;;;;;;4.85;3.85;;;;;;;4.32;45.03;101816.19;1769342;80;20983;-69
2022/02/03 22:54:13;;;;;;;4.78;3.92;;;;;;;4.28;45.18;101823.41;1755185;80;21014;-68
2022/02/03 22:56:41;;;;;;;5.70;3.77;;;;;;;4.24;45.38;101827.64;1759483;80;21040;-68
2022/02/03 23:01:38;;;;;;;5.17;3.80;;;;;;;4.18;45.26;101832.66;1696528;84;21502;-69
2022/02/03 23:04:05;;;;;;;4.03;3.58;;;;;;;4.19;45.57;101830.94;1693943;84;21470;-69
2022/02/03 23:06:32;;;;;;;3.92;3.52;;;;;;;4.17;45.36;101836.06;1703738;82;21601;-70